sensor_id;sensor_type;location;lat;lon;timestamp;temperature;humidity
59307;DHT22;47983;53.016;-2.260;2023-07-16T00:01:32;14.40;99.90
59307;DHT22;47983;53.016;-2.260;2023-07-16T00:06:28;14.40;99.90
59307;DHT22;47983;53.016;-2.260;2023-07-16T00:08:56;14.40;99.90
59307;DHT22;47983;53.016;-2.260;2023-07-16T00:11:24;14.40;99.90
59307;DHT22;47983;53.016;-2.260;2023-07-16T00:13:52;14.40;99.90
59307;DHT22;47983;53.016;-2.260;2023-07-16T00:16:21;14.40;99.90
59307;DHT22;47983;53.016;-2.260;2023-07-16T00:18:48;14.30;99.90
59307;DHT22;47983;53.016;-2.260;2023-07-16T00:21:16;14.40;99.90
59307;DHT22;47983;53.016;-2.260;2023-07-16T00:23:44;14.30;99.90
59307;DHT22;47983;53.016;-2.260;2023-07-16T00:26:13;14.40;99.90
59307;DHT22;47983;53.016;-2.260;2023-07-16T00:28:41;14.40;99.90
59307;DHT22;47983;53.016;-2.260;2023-07-16T00:31:09;14.40;99.90
59307;DHT22;47983;53.016;-2.260;2023-07-16T00:33:37;14.30;99.90
59307;DHT22;47983;53.016;-2.260;2023-07-16T00:36:05;14.40;99.90
59307;DHT22;47983;53.016;-2.260;2023-07-16T00:38:32;14.40;99.90
59307;DHT22;47983;53.016;-2.260;2023-07-16T00:41:00;14.40;99.90
59307;DHT22;47983;53.016;-2.260;2023-07-16T00:43:28;14.40;99.90
59307;DHT22;47983;53.016;-2.260;2023-07-16T00:45:56;14.40;99.90
59307;DHT22;47983;53.016;-2.260;2023-07-16T00:48:24;14.40;99.90
59307;DHT22;47983;53.016;-2.260;2023-07-16T00:50:53;14.30;99.90
59307;DHT22;47983;53.016;-2.260;2023-07-16T00:53:22;14.40;99.90
59307;DHT22;47983;53.016;-2.260;2023-07-16T00:55:50;14.40;99.90
59307;DHT22;47983;53.016;-2.260;2023-07-16T00:58:19;14.30;99.90
59307;DHT22;47983;53.016;-2.260;2023-07-16T01:00:47;14.30;99.90
59307;DHT22;47983;53.016;-2.260;2023-07-16T01:03:18;14.30;99.90
59307;DHT22;47983;53.016;-2.260;2023-07-16T01:08:41;14.30;99.90
59307;DHT22;47983;53.016;-2.260;2023-07-16T01:11:09;14.30;99.90
59307;DHT22;47983;53.016;-2.260;2023-07-16T01:13:38;14.30;99.90
59307;DHT22;47983;53.016;-2.260;2023-07-16T01:16:24;14.30;99.90
59307;DHT22;47983;53.016;-2.260;2023-07-16T01:18:53;14.30;99.90
59307;DHT22;47983;53.016;-2.260;2023-07-16T01:21:23;14.30;99.90
59307;DHT22;47983;53.016;-2.260;2023-07-16T01:29:45;14.30;99.90
59307;DHT22;47983;53.016;-2.260;2023-07-16T01:32:13;14.30;99.90
59307;DHT22;47983;53.016;-2.260;2023-07-16T01:34:42;14.30;99.90
59307;DHT22;47983;53.016;-2.260;2023-07-16T01:37:11;14.30;99.90
59307;DHT22;47983;53.016;-2.260;2023-07-16T01:39:39;14.20;99.90
59307;DHT22;47983;53.016;-2.260;2023-07-16T01:42:07;14.20;99.90
59307;DHT22;47983;53.016;-2.260;2023-07-16T01:44:35;14.10;99.90
59307;DHT22;47983;53.016;-2.260;2023-07-16T01:49:38;14.10;99.90
59307;DHT22;47983;53.016;-2.260;2023-07-16T01:52:07;14.10;99.90
59307;DHT22;47983;53.016;-2.260;2023-07-16T01:54:37;14.10;99.90
59307;DHT22;47983;53.016;-2.260;2023-07-16T01:57:04;14.10;99.90
59307;DHT22;47983;53.016;-2.260;2023-07-16T01:59:32;14.10;99.90
59307;DHT22;47983;53.016;-2.260;2023-07-16T02:02:00;14.00;99.90
59307;DHT22;47983;53.016;-2.260;2023-07-16T02:04:27;14.10;99.90
59307;DHT22;47983;53.016;-2.260;2023-07-16T02:06:58;14.00;99.90
59307;DHT22;47983;53.016;-2.260;2023-07-16T02:09:26;14.00;99.90
59307;DHT22;47983;53.016;-2.260;2023-07-16T02:11:54;14.10;99.90
59307;DHT22;47983;53.016;-2.260;2023-07-16T02:14:22;14.10;99.90
59307;DHT22;47983;53.016;-2.260;2023-07-16T02:16:50;14.10;99.90
59307;DHT22;47983;53.016;-2.260;2023-07-16T02:19:17;14.10;99.90
59307;DHT22;47983;53.016;-2.260;2023-07-16T02:21:45;14.10;99.90
59307;DHT22;47983;53.016;-2.260;2023-07-16T02:24:12;14.10;99.90
59307;DHT22;47983;53.016;-2.260;2023-07-16T02:26:40;14.10;99.90
59307;DHT22;47983;53.016;-2.260;2023-07-16T02:29:11;14.10;99.90
59307;DHT22;47983;53.016;-2.260;2023-07-16T02:31:38;14.10;99.90
59307;DHT22;47983;53.016;-2.260;2023-07-16T02:34:06;14.10;99.90
59307;DHT22;47983;53.016;-2.260;2023-07-16T02:36:34;14.10;99.90
59307;DHT22;47983;53.016;-2.260;2023-07-16T02:39:05;14.10;99.90
59307;DHT22;47983;53.016;-2.260;2023-07-16T02:41:32;14.10;99.90
59307;DHT22;47983;53.016;-2.260;2023-07-16T02:44:02;14.10;99.90
59307;DHT22;47983;53.016;-2.260;2023-07-16T02:46:30;14.10;99.90
59307;DHT22;47983;53.016;-2.260;2023-07-16T02:48:58;14.10;99.90
59307;DHT22;47983;53.016;-2.260;2023-07-16T02:51:25;14.10;99.90
59307;DHT22;47983;53.016;-2.260;2023-07-16T02:53:53;14.10;99.90
59307;DHT22;47983;53.016;-2.260;2023-07-16T02:56:21;14.20;99.90
59307;DHT22;47983;53.016;-2.260;2023-07-16T02:58:49;14.10;99.90
59307;DHT22;47983;53.016;-2.260;2023-07-16T03:01:17;14.10;99.90
59307;DHT22;47983;53.016;-2.260;2023-07-16T03:03:44;14.10;99.90
59307;DHT22;47983;53.016;-2.260;2023-07-16T03:06:12;14.10;99.90
59307;DHT22;47983;53.016;-2.260;2023-07-16T03:08:40;14.10;99.90
59307;DHT22;47983;53.016;-2.260;2023-07-16T03:11:08;14.10;99.90
59307;DHT22;47983;53.016;-2.260;2023-07-16T03:13:36;14.10;99.90
59307;DHT22;47983;53.016;-2.260;2023-07-16T03:16:04;14.20;99.90
59307;DHT22;47983;53.016;-2.260;2023-07-16T03:18:32;14.10;99.90
59307;DHT22;47983;53.016;-2.260;2023-07-16T03:21:00;14.10;99.90
59307;DHT22;47983;53.016;-2.260;2023-07-16T03:23:28;14.10;99.90
59307;DHT22;47983;53.016;-2.260;2023-07-16T03:25:56;14.10;99.90
59307;DHT22;47983;53.016;-2.260;2023-07-16T03:28:23;14.10;99.90
59307;DHT22;47983;53.016;-2.260;2023-07-16T03:30:51;14.00;99.90
59307;DHT22;47983;53.016;-2.260;2023-07-16T03:33:20;14.00;99.90
59307;DHT22;47983;53.016;-2.260;2023-07-16T03:35:48;14.10;99.90
59307;DHT22;47983;53.016;-2.260;2023-07-16T03:38:19;14.00;99.90
59307;DHT22;47983;53.016;-2.260;2023-07-16T03:40:48;14.10;99.90
59307;DHT22;47983;53.016;-2.260;2023-07-16T03:43:16;14.10;99.90
59307;DHT22;47983;53.016;-2.260;2023-07-16T03:45:45;14.00;99.90
59307;DHT22;47983;53.016;-2.260;2023-07-16T03:48:13;14.00;99.90
59307;DHT22;47983;53.016;-2.260;2023-07-16T03:50:41;14.00;99.90
59307;DHT22;47983;53.016;-2.260;2023-07-16T03:53:08;14.00;99.90
59307;DHT22;47983;53.016;-2.260;2023-07-16T03:55:36;14.00;99.90
59307;DHT22;47983;53.016;-2.260;2023-07-16T03:58:04;14.00;99.90
59307;DHT22;47983;53.016;-2.260;2023-07-16T04:00:32;14.00;99.90
59307;DHT22;47983;53.016;-2.260;2023-07-16T04:03:00;14.00;99.90
59307;DHT22;47983;53.016;-2.260;2023-07-16T04:05:28;14.00;99.90
59307;DHT22;47983;53.016;-2.260;2023-07-16T04:07:55;14.00;99.90
59307;DHT22;47983;53.016;-2.260;2023-07-16T04:10:23;14.00;99.90
59307;DHT22;47983;53.016;-2.260;2023-07-16T04:12:51;14.00;99.90
59307;DHT22;47983;53.016;-2.260;2023-07-16T04:15:18;14.00;99.90
59307;DHT22;47983;53.016;-2.260;2023-07-16T04:17:46;14.00;99.90
59307;DHT22;47983;53.016;-2.260;2023-07-16T04:20:14;14.00;99.90
59307;DHT22;47983;53.016;-2.260;2023-07-16T04:22:41;14.00;99.90
59307;DHT22;47983;53.016;-2.260;2023-07-16T04:25:09;14.00;99.90
59307;DHT22;47983;53.016;-2.260;2023-07-16T04:27:37;14.00;99.90
59307;DHT22;47983;53.016;-2.260;2023-07-16T04:30:05;14.00;99.90
59307;DHT22;47983;53.016;-2.260;2023-07-16T04:32:33;14.00;99.90
59307;DHT22;47983;53.016;-2.260;2023-07-16T04:35:01;14.00;99.90
59307;DHT22;47983;53.016;-2.260;2023-07-16T04:37:31;14.00;99.90
59307;DHT22;47983;53.016;-2.260;2023-07-16T04:39:58;14.00;99.90
59307;DHT22;47983;53.016;-2.260;2023-07-16T04:42:26;14.00;99.90
59307;DHT22;47983;53.016;-2.260;2023-07-16T04:44:54;14.00;99.90
59307;DHT22;47983;53.016;-2.260;2023-07-16T04:47:22;14.00;99.90
59307;DHT22;47983;53.016;-2.260;2023-07-16T04:49:50;14.00;99.90
59307;DHT22;47983;53.016;-2.260;2023-07-16T04:52:18;13.90;99.90
59307;DHT22;47983;53.016;-2.260;2023-07-16T04:54:46;14.00;99.90
59307;DHT22;47983;53.016;-2.260;2023-07-16T04:57:14;13.90;99.90
59307;DHT22;47983;53.016;-2.260;2023-07-16T04:59:42;14.00;99.90
59307;DHT22;47983;53.016;-2.260;2023-07-16T05:02:10;14.00;99.90
59307;DHT22;47983;53.016;-2.260;2023-07-16T05:04:37;14.00;99.90
59307;DHT22;47983;53.016;-2.260;2023-07-16T05:07:05;14.00;99.90
59307;DHT22;47983;53.016;-2.260;2023-07-16T05:09:33;14.00;99.90
59307;DHT22;47983;53.016;-2.260;2023-07-16T05:12:01;13.90;99.90
59307;DHT22;47983;53.016;-2.260;2023-07-16T05:14:30;14.00;99.90
59307;DHT22;47983;53.016;-2.260;2023-07-16T05:16:57;13.90;99.90
59307;DHT22;47983;53.016;-2.260;2023-07-16T05:19:25;13.90;99.90
59307;DHT22;47983;53.016;-2.260;2023-07-16T05:21:53;13.90;99.90
59307;DHT22;47983;53.016;-2.260;2023-07-16T05:24:22;13.90;99.90
59307;DHT22;47983;53.016;-2.260;2023-07-16T05:26:49;13.90;99.90
59307;DHT22;47983;53.016;-2.260;2023-07-16T05:29:18;13.90;99.90
59307;DHT22;47983;53.016;-2.260;2023-07-16T05:31:46;14.00;99.90
59307;DHT22;47983;53.016;-2.260;2023-07-16T05:34:14;13.90;99.90
59307;DHT22;47983;53.016;-2.260;2023-07-16T05:36:42;14.00;99.90
59307;DHT22;47983;53.016;-2.260;2023-07-16T05:39:10;14.00;99.90
59307;DHT22;47983;53.016;-2.260;2023-07-16T05:41:40;14.00;99.90
59307;DHT22;47983;53.016;-2.260;2023-07-16T05:44:08;14.00;99.90
59307;DHT22;47983;53.016;-2.260;2023-07-16T05:46:36;14.00;99.90
59307;DHT22;47983;53.016;-2.260;2023-07-16T05:49:04;14.00;99.90
59307;DHT22;47983;53.016;-2.260;2023-07-16T05:51:31;14.00;99.90
59307;DHT22;47983;53.016;-2.260;2023-07-16T05:53:59;14.00;99.90
59307;DHT22;47983;53.016;-2.260;2023-07-16T05:56:27;14.00;99.90
59307;DHT22;47983;53.016;-2.260;2023-07-16T05:58:54;14.00;99.90
59307;DHT22;47983;53.016;-2.260;2023-07-16T06:01:22;14.00;99.90
59307;DHT22;47983;53.016;-2.260;2023-07-16T06:03:49;14.00;99.90
59307;DHT22;47983;53.016;-2.260;2023-07-16T06:06:17;14.00;99.90
59307;DHT22;47983;53.016;-2.260;2023-07-16T06:08:46;14.10;99.90
59307;DHT22;47983;53.016;-2.260;2023-07-16T06:11:14;14.10;99.90
59307;DHT22;47983;53.016;-2.260;2023-07-16T06:13:42;14.10;99.90
59307;DHT22;47983;53.016;-2.260;2023-07-16T06:16:10;14.10;99.90
59307;DHT22;47983;53.016;-2.260;2023-07-16T06:18:38;14.10;99.90
59307;DHT22;47983;53.016;-2.260;2023-07-16T06:21:05;14.10;99.90
59307;DHT22;47983;53.016;-2.260;2023-07-16T06:23:33;14.10;99.90
59307;DHT22;47983;53.016;-2.260;2023-07-16T06:26:01;14.20;99.90
59307;DHT22;47983;53.016;-2.260;2023-07-16T06:28:29;14.20;99.90
59307;DHT22;47983;53.016;-2.260;2023-07-16T06:30:57;14.20;99.90
59307;DHT22;47983;53.016;-2.260;2023-07-16T06:33:25;14.20;99.90
59307;DHT22;47983;53.016;-2.260;2023-07-16T06:35:54;14.20;99.90
59307;DHT22;47983;53.016;-2.260;2023-07-16T06:38:22;14.30;99.90
59307;DHT22;47983;53.016;-2.260;2023-07-16T06:40:50;14.40;99.90
59307;DHT22;47983;53.016;-2.260;2023-07-16T06:43:18;14.50;99.90
59307;DHT22;47983;53.016;-2.260;2023-07-16T06:45:48;14.50;99.90
59307;DHT22;47983;53.016;-2.260;2023-07-16T06:48:16;14.60;99.90
59307;DHT22;47983;53.016;-2.260;2023-07-16T06:50:45;14.60;99.90
59307;DHT22;47983;53.016;-2.260;2023-07-16T06:53:12;14.60;99.90
59307;DHT22;47983;53.016;-2.260;2023-07-16T06:55:40;14.80;99.90
59307;DHT22;47983;53.016;-2.260;2023-07-16T06:58:13;14.70;99.90
59307;DHT22;47983;53.016;-2.260;2023-07-16T07:00:41;14.80;99.90
59307;DHT22;47983;53.016;-2.260;2023-07-16T07:03:08;14.90;99.90
59307;DHT22;47983;53.016;-2.260;2023-07-16T07:05:40;14.90;99.90
59307;DHT22;47983;53.016;-2.260;2023-07-16T07:08:08;14.90;99.90
59307;DHT22;47983;53.016;-2.260;2023-07-16T07:10:36;14.90;99.90
59307;DHT22;47983;53.016;-2.260;2023-07-16T07:13:05;14.90;99.90
59307;DHT22;47983;53.016;-2.260;2023-07-16T07:15:33;15.00;99.90
59307;DHT22;47983;53.016;-2.260;2023-07-16T07:18:00;15.00;99.90
59307;DHT22;47983;53.016;-2.260;2023-07-16T07:20:28;15.00;99.90
59307;DHT22;47983;53.016;-2.260;2023-07-16T07:22:56;15.00;99.90
59307;DHT22;47983;53.016;-2.260;2023-07-16T07:25:27;15.10;99.90
59307;DHT22;47983;53.016;-2.260;2023-07-16T07:27:55;15.20;99.90
59307;DHT22;47983;53.016;-2.260;2023-07-16T07:30:23;15.20;99.90
59307;DHT22;47983;53.016;-2.260;2023-07-16T07:32:50;15.20;99.90
59307;DHT22;47983;53.016;-2.260;2023-07-16T07:35:18;15.20;99.90
59307;DHT22;47983;53.016;-2.260;2023-07-16T07:37:46;15.20;99.90
59307;DHT22;47983;53.016;-2.260;2023-07-16T07:40:14;15.20;99.90
59307;DHT22;47983;53.016;-2.260;2023-07-16T07:42:42;15.20;99.90
59307;DHT22;47983;53.016;-2.260;2023-07-16T07:45:10;15.20;99.90
59307;DHT22;47983;53.016;-2.260;2023-07-16T07:47:38;15.20;99.90
59307;DHT22;47983;53.016;-2.260;2023-07-16T07:50:06;15.20;99.90
59307;DHT22;47983;53.016;-2.260;2023-07-16T07:52:34;15.20;99.90
59307;DHT22;47983;53.016;-2.260;2023-07-16T07:55:02;15.30;99.90
59307;DHT22;47983;53.016;-2.260;2023-07-16T07:57:30;15.30;99.90
59307;DHT22;47983;53.016;-2.260;2023-07-16T07:59:58;15.50;99.90
59307;DHT22;47983;53.016;-2.260;2023-07-16T08:02:28;15.60;99.90
59307;DHT22;47983;53.016;-2.260;2023-07-16T08:04:56;15.70;99.90
59307;DHT22;47983;53.016;-2.260;2023-07-16T08:07:24;15.90;99.90
59307;DHT22;47983;53.016;-2.260;2023-07-16T08:09:53;15.90;99.90
59307;DHT22;47983;53.016;-2.260;2023-07-16T08:12:21;16.00;99.90
59307;DHT22;47983;53.016;-2.260;2023-07-16T08:14:48;16.00;99.90
59307;DHT22;47983;53.016;-2.260;2023-07-16T08:17:16;16.10;99.90
59307;DHT22;47983;53.016;-2.260;2023-07-16T08:19:44;16.20;99.90
59307;DHT22;47983;53.016;-2.260;2023-07-16T08:22:11;16.20;99.90
59307;DHT22;47983;53.016;-2.260;2023-07-16T08:24:39;16.20;99.90
59307;DHT22;47983;53.016;-2.260;2023-07-16T08:27:08;16.30;99.90
59307;DHT22;47983;53.016;-2.260;2023-07-16T08:29:36;16.30;99.90
59307;DHT22;47983;53.016;-2.260;2023-07-16T08:32:04;16.30;99.90
59307;DHT22;47983;53.016;-2.260;2023-07-16T08:34:32;16.30;99.90
59307;DHT22;47983;53.016;-2.260;2023-07-16T08:37:00;16.20;99.90
59307;DHT22;47983;53.016;-2.260;2023-07-16T08:39:27;16.20;99.90
59307;DHT22;47983;53.016;-2.260;2023-07-16T08:41:56;16.10;99.90
59307;DHT22;47983;53.016;-2.260;2023-07-16T08:44:24;16.10;99.90
59307;DHT22;47983;53.016;-2.260;2023-07-16T08:46:52;16.20;99.90
59307;DHT22;47983;53.016;-2.260;2023-07-16T08:49:22;16.20;99.90
59307;DHT22;47983;53.016;-2.260;2023-07-16T08:51:50;16.20;99.90
59307;DHT22;47983;53.016;-2.260;2023-07-16T08:54:19;16.20;99.90
59307;DHT22;47983;53.016;-2.260;2023-07-16T08:56:47;16.20;99.90
59307;DHT22;47983;53.016;-2.260;2023-07-16T08:59:16;16.10;99.90
59307;DHT22;47983;53.016;-2.260;2023-07-16T09:01:47;16.10;99.90
59307;DHT22;47983;53.016;-2.260;2023-07-16T09:04:15;16.20;99.90
59307;DHT22;47983;53.016;-2.260;2023-07-16T09:06:44;16.20;99.90
59307;DHT22;47983;53.016;-2.260;2023-07-16T09:09:22;16.40;99.90
59307;DHT22;47983;53.016;-2.260;2023-07-16T09:11:51;16.40;99.90
59307;DHT22;47983;53.016;-2.260;2023-07-16T09:14:19;16.40;99.90
59307;DHT22;47983;53.016;-2.260;2023-07-16T09:16:51;16.50;99.90
59307;DHT22;47983;53.016;-2.260;2023-07-16T09:19:20;16.50;99.90
59307;DHT22;47983;53.016;-2.260;2023-07-16T09:21:49;16.60;99.90
59307;DHT22;47983;53.016;-2.260;2023-07-16T09:24:18;16.60;99.90
59307;DHT22;47983;53.016;-2.260;2023-07-16T09:26:55;16.60;99.90
59307;DHT22;47983;53.016;-2.260;2023-07-16T09:29:25;16.70;99.90
59307;DHT22;47983;53.016;-2.260;2023-07-16T09:32:03;16.70;99.90
59307;DHT22;47983;53.016;-2.260;2023-07-16T09:34:32;16.80;99.90
59307;DHT22;47983;53.016;-2.260;2023-07-16T09:37:01;17.00;99.90
59307;DHT22;47983;53.016;-2.260;2023-07-16T09:39:29;17.20;99.90
59307;DHT22;47983;53.016;-2.260;2023-07-16T09:41:59;17.40;99.90
59307;DHT22;47983;53.016;-2.260;2023-07-16T09:44:27;17.60;99.90
59307;DHT22;47983;53.016;-2.260;2023-07-16T09:46:54;17.70;99.90
59307;DHT22;47983;53.016;-2.260;2023-07-16T09:49:24;17.80;99.90
59307;DHT22;47983;53.016;-2.260;2023-07-16T09:51:53;17.80;99.90
59307;DHT22;47983;53.016;-2.260;2023-07-16T09:54:25;17.70;99.90
59307;DHT22;47983;53.016;-2.260;2023-07-16T09:56:56;17.70;99.90
59307;DHT22;47983;53.016;-2.260;2023-07-16T09:59:29;17.70;99.90
59307;DHT22;47983;53.016;-2.260;2023-07-16T10:01:57;17.80;99.90
59307;DHT22;47983;53.016;-2.260;2023-07-16T10:04:26;18.00;99.90
59307;DHT22;47983;53.016;-2.260;2023-07-16T10:07:00;18.30;99.90
59307;DHT22;47983;53.016;-2.260;2023-07-16T10:12:13;18.80;99.90
59307;DHT22;47983;53.016;-2.260;2023-07-16T10:14:55;18.90;99.90
59307;DHT22;47983;53.016;-2.260;2023-07-16T10:17:30;19.00;99.90
59307;DHT22;47983;53.016;-2.260;2023-07-16T10:20:02;19.10;99.90
59307;DHT22;47983;53.016;-2.260;2023-07-16T10:22:41;19.10;99.90
59307;DHT22;47983;53.016;-2.260;2023-07-16T10:27:39;18.90;99.90
59307;DHT22;47983;53.016;-2.260;2023-07-16T10:30:07;19.00;99.90
59307;DHT22;47983;53.016;-2.260;2023-07-16T10:32:34;19.10;99.90
59307;DHT22;47983;53.016;-2.260;2023-07-16T10:35:04;19.20;99.90
59307;DHT22;47983;53.016;-2.260;2023-07-16T10:37:33;19.20;99.90
59307;DHT22;47983;53.016;-2.260;2023-07-16T10:40:02;19.10;99.90
59307;DHT22;47983;53.016;-2.260;2023-07-16T10:42:32;19.00;99.90
59307;DHT22;47983;53.016;-2.260;2023-07-16T10:45:04;19.10;99.90
59307;DHT22;47983;53.016;-2.260;2023-07-16T10:47:37;19.10;99.90
59307;DHT22;47983;53.016;-2.260;2023-07-16T10:50:09;19.10;99.90
59307;DHT22;47983;53.016;-2.260;2023-07-16T10:52:37;19.00;99.90
59307;DHT22;47983;53.016;-2.260;2023-07-16T10:55:06;18.90;99.90
59307;DHT22;47983;53.016;-2.260;2023-07-16T10:57:33;18.60;99.90
59307;DHT22;47983;53.016;-2.260;2023-07-16T11:00:02;18.50;99.90
59307;DHT22;47983;53.016;-2.260;2023-07-16T11:02:31;18.50;99.90
59307;DHT22;47983;53.016;-2.260;2023-07-16T11:04:59;18.60;99.90
59307;DHT22;47983;53.016;-2.260;2023-07-16T11:07:29;18.80;99.90
59307;DHT22;47983;53.016;-2.260;2023-07-16T11:09:57;19.00;99.90
59307;DHT22;47983;53.016;-2.260;2023-07-16T11:12:25;19.40;99.90
59307;DHT22;47983;53.016;-2.260;2023-07-16T11:14:54;19.70;99.90
59307;DHT22;47983;53.016;-2.260;2023-07-16T11:17:24;19.90;99.90
59307;DHT22;47983;53.016;-2.260;2023-07-16T11:19:55;20.20;99.90
59307;DHT22;47983;53.016;-2.260;2023-07-16T11:22:26;20.50;99.90
59307;DHT22;47983;53.016;-2.260;2023-07-16T11:24:55;20.60;99.90
59307;DHT22;47983;53.016;-2.260;2023-07-16T11:27:31;20.70;99.90
59307;DHT22;47983;53.016;-2.260;2023-07-16T11:29:59;20.70;99.90
59307;DHT22;47983;53.016;-2.260;2023-07-16T11:32:36;20.70;99.90
59307;DHT22;47983;53.016;-2.260;2023-07-16T11:35:06;20.60;99.90
59307;DHT22;47983;53.016;-2.260;2023-07-16T11:37:35;20.40;99.90
59307;DHT22;47983;53.016;-2.260;2023-07-16T11:40:03;20.20;99.90
59307;DHT22;47983;53.016;-2.260;2023-07-16T11:42:34;20.10;99.90
59307;DHT22;47983;53.016;-2.260;2023-07-16T11:45:02;19.90;99.90
59307;DHT22;47983;53.016;-2.260;2023-07-16T11:47:32;20.00;99.90
59307;DHT22;47983;53.016;-2.260;2023-07-16T11:50:01;20.00;99.90
59307;DHT22;47983;53.016;-2.260;2023-07-16T11:52:29;20.10;99.90
59307;DHT22;47983;53.016;-2.260;2023-07-16T11:54:58;20.10;99.90
59307;DHT22;47983;53.016;-2.260;2023-07-16T11:57:31;20.10;99.90
59307;DHT22;47983;53.016;-2.260;2023-07-16T11:59:58;20.10;99.90
59307;DHT22;47983;53.016;-2.260;2023-07-16T12:02:26;20.00;99.90
59307;DHT22;47983;53.016;-2.260;2023-07-16T12:04:55;19.80;99.90
59307;DHT22;47983;53.016;-2.260;2023-07-16T12:07:33;19.70;99.90
59307;DHT22;47983;53.016;-2.260;2023-07-16T12:10:03;19.50;99.90
59307;DHT22;47983;53.016;-2.260;2023-07-16T12:12:33;19.40;99.90
59307;DHT22;47983;53.016;-2.260;2023-07-16T12:15:07;19.40;99.90
59307;DHT22;47983;53.016;-2.260;2023-07-16T12:17:35;19.70;99.90
59307;DHT22;47983;53.016;-2.260;2023-07-16T12:20:04;20.00;99.90
59307;DHT22;47983;53.016;-2.260;2023-07-16T12:22:32;20.40;99.90
59307;DHT22;47983;53.016;-2.260;2023-07-16T12:25:00;20.90;99.90
59307;DHT22;47983;53.016;-2.260;2023-07-16T12:27:28;21.50;99.90
59307;DHT22;47983;53.016;-2.260;2023-07-16T12:29:56;21.90;99.90
59307;DHT22;47983;53.016;-2.260;2023-07-16T12:32:23;22.30;99.90
59307;DHT22;47983;53.016;-2.260;2023-07-16T12:34:51;22.40;99.90
59307;DHT22;47983;53.016;-2.260;2023-07-16T12:37:19;22.40;99.90
59307;DHT22;47983;53.016;-2.260;2023-07-16T12:39:46;22.20;99.90
59307;DHT22;47983;53.016;-2.260;2023-07-16T12:42:14;21.90;99.90
59307;DHT22;47983;53.016;-2.260;2023-07-16T12:44:42;21.60;99.90
59307;DHT22;47983;53.016;-2.260;2023-07-16T12:47:09;21.80;99.90
59307;DHT22;47983;53.016;-2.260;2023-07-16T12:49:37;22.30;99.90
59307;DHT22;47983;53.016;-2.260;2023-07-16T12:52:05;22.50;99.90
59307;DHT22;47983;53.016;-2.260;2023-07-16T12:54:33;22.60;99.90
59307;DHT22;47983;53.016;-2.260;2023-07-16T12:57:01;22.80;99.90
59307;DHT22;47983;53.016;-2.260;2023-07-16T12:59:28;22.70;99.90
59307;DHT22;47983;53.016;-2.260;2023-07-16T13:01:56;22.30;99.90
59307;DHT22;47983;53.016;-2.260;2023-07-16T13:04:24;21.80;99.90
59307;DHT22;47983;53.016;-2.260;2023-07-16T13:06:52;21.20;99.90
59307;DHT22;47983;53.016;-2.260;2023-07-16T13:09:20;20.80;99.90
59307;DHT22;47983;53.016;-2.260;2023-07-16T13:11:47;20.10;99.90
59307;DHT22;47983;53.016;-2.260;2023-07-16T13:14:17;19.90;99.90
59307;DHT22;47983;53.016;-2.260;2023-07-16T13:16:44;19.40;99.90
59307;DHT22;47983;53.016;-2.260;2023-07-16T13:19:12;19.10;99.90
59307;DHT22;47983;53.016;-2.260;2023-07-16T13:21:41;19.00;99.90
59307;DHT22;47983;53.016;-2.260;2023-07-16T13:24:09;19.10;99.90
59307;DHT22;47983;53.016;-2.260;2023-07-16T13:26:36;19.10;99.90
59307;DHT22;47983;53.016;-2.260;2023-07-16T13:29:04;19.10;99.90
59307;DHT22;47983;53.016;-2.260;2023-07-16T13:31:32;19.00;99.90
59307;DHT22;47983;53.016;-2.260;2023-07-16T13:34:00;19.10;99.90
59307;DHT22;47983;53.016;-2.260;2023-07-16T13:36:27;19.30;99.90
59307;DHT22;47983;53.016;-2.260;2023-07-16T13:38:55;19.90;99.90
59307;DHT22;47983;53.016;-2.260;2023-07-16T13:41:23;20.20;99.90
59307;DHT22;47983;53.016;-2.260;2023-07-16T13:43:51;20.20;99.90
59307;DHT22;47983;53.016;-2.260;2023-07-16T13:46:18;20.00;99.90
59307;DHT22;47983;53.016;-2.260;2023-07-16T13:48:46;19.70;99.90
59307;DHT22;47983;53.016;-2.260;2023-07-16T13:51:22;19.50;99.90
59307;DHT22;47983;53.016;-2.260;2023-07-16T13:53:50;19.30;99.90
59307;DHT22;47983;53.016;-2.260;2023-07-16T13:56:18;19.20;99.90
59307;DHT22;47983;53.016;-2.260;2023-07-16T13:58:46;19.10;99.90
59307;DHT22;47983;53.016;-2.260;2023-07-16T14:01:15;19.10;99.90
59307;DHT22;47983;53.016;-2.260;2023-07-16T14:03:44;19.10;99.90
59307;DHT22;47983;53.016;-2.260;2023-07-16T14:06:12;19.50;99.90
59307;DHT22;47983;53.016;-2.260;2023-07-16T14:08:39;19.50;99.90
59307;DHT22;47983;53.016;-2.260;2023-07-16T14:11:07;20.10;99.90
59307;DHT22;47983;53.016;-2.260;2023-07-16T14:13:34;20.20;99.90
59307;DHT22;47983;53.016;-2.260;2023-07-16T14:16:02;20.30;99.90
59307;DHT22;47983;53.016;-2.260;2023-07-16T14:18:30;20.50;99.90
59307;DHT22;47983;53.016;-2.260;2023-07-16T14:20:59;20.70;99.90
59307;DHT22;47983;53.016;-2.260;2023-07-16T14:23:30;20.80;99.90
59307;DHT22;47983;53.016;-2.260;2023-07-16T14:25:58;20.80;99.90
59307;DHT22;47983;53.016;-2.260;2023-07-16T14:28:25;21.00;99.90
59307;DHT22;47983;53.016;-2.260;2023-07-16T14:30:53;21.20;99.90
59307;DHT22;47983;53.016;-2.260;2023-07-16T14:33:21;21.60;99.90
59307;DHT22;47983;53.016;-2.260;2023-07-16T14:35:49;22.30;99.90
59307;DHT22;47983;53.016;-2.260;2023-07-16T14:38:17;23.00;99.90
59307;DHT22;47983;53.016;-2.260;2023-07-16T14:40:44;23.50;99.90
59307;DHT22;47983;53.016;-2.260;2023-07-16T14:43:12;23.70;99.90
59307;DHT22;47983;53.016;-2.260;2023-07-16T14:45:40;23.70;99.90
59307;DHT22;47983;53.016;-2.260;2023-07-16T14:48:07;23.50;99.90
59307;DHT22;47983;53.016;-2.260;2023-07-16T14:50:37;23.40;99.90
59307;DHT22;47983;53.016;-2.260;2023-07-16T14:53:05;23.40;99.90
59307;DHT22;47983;53.016;-2.260;2023-07-16T14:55:33;23.40;99.40
59307;DHT22;47983;53.016;-2.260;2023-07-16T14:58:01;23.40;99.90
59307;DHT22;47983;53.016;-2.260;2023-07-16T15:00:29;23.30;99.90
59307;DHT22;47983;53.016;-2.260;2023-07-16T15:02:57;23.20;99.90
59307;DHT22;47983;53.016;-2.260;2023-07-16T15:05:25;23.20;99.80
59307;DHT22;47983;53.016;-2.260;2023-07-16T15:07:53;23.20;98.80
59307;DHT22;47983;53.016;-2.260;2023-07-16T15:10:23;23.00;99.40
59307;DHT22;47983;53.016;-2.260;2023-07-16T15:12:51;22.90;98.70
59307;DHT22;47983;53.016;-2.260;2023-07-16T15:15:19;22.80;99.80
59307;DHT22;47983;53.016;-2.260;2023-07-16T15:17:47;22.90;99.90
59307;DHT22;47983;53.016;-2.260;2023-07-16T15:20:15;23.10;99.70
59307;DHT22;47983;53.016;-2.260;2023-07-16T15:22:43;23.10;98.30
59307;DHT22;47983;53.016;-2.260;2023-07-16T15:25:11;23.10;97.80
59307;DHT22;47983;53.016;-2.260;2023-07-16T15:27:39;23.00;98.60
59307;DHT22;47983;53.016;-2.260;2023-07-16T15:30:07;22.80;98.20
59307;DHT22;47983;53.016;-2.260;2023-07-16T15:32:35;22.70;98.70
59307;DHT22;47983;53.016;-2.260;2023-07-16T15:35:03;22.60;99.30
59307;DHT22;47983;53.016;-2.260;2023-07-16T15:37:31;22.50;99.80
59307;DHT22;47983;53.016;-2.260;2023-07-16T15:39:59;22.40;99.90
59307;DHT22;47983;53.016;-2.260;2023-07-16T15:42:27;22.40;99.80